Time;durP1;ratioP1;P1;durP2;ratioP2;P2;SDS_P1;SDS_P2;PMS_P1;PMS_P2;Temp;Humidity;BMP_temperature;BMP_pressure;BME280_temperature;BME280_humidity;BME280_pressure;Samples;Min_cycle;Max_cycle;Signal;HPM_P1;HPM_P2
2022/12/17 13:06:55;;;;;;;47.63;31.05;;;;;;;-0.98;100.00;102620.50;5135663;27;20038;-37
2022/12/17 13:09:26;;;;;;;49.42;33.13;;;;;;;-0.87;100.00;102644.50;5136091;27;20114;-37
2022/12/17 13:12:01;;;;;;;52.58;33.70;;;;;;;-0.98;100.00;102647.06;5135861;27;20023;-37
2022/12/17 13:14:46;;;;;;;49.95;31.88;;;;;;;-0.99;100.00;102645.38;5136966;27;20084;-37
2022/12/17 13:17:15;;;;;;;48.88;30.92;;;;;;;-0.99;100.00;102652.50;5134951;27;20043;-37
2022/12/17 13:19:40;;;;;;;51.10;32.85;;;;;;;-1.05;100.00;102648.47;5135648;27;20019;-37
2022/12/17 13:22:15;;;;;;;49.33;31.80;;;;;;;-1.14;100.00;102638.53;5135749;27;20027;-37
2022/12/17 13:24:45;;;;;;;49.97;32.58;;;;;;;-1.15;100.00;102647.44;5135459;27;20027;-37
2022/12/17 13:27:34;;;;;;;52.80;33.92;;;;;;;-1.18;100.00;102639.69;5135632;27;20413;-37
2022/12/17 13:30:16;;;;;;;53.67;33.20;;;;;;;-1.16;100.00;102633.31;5135049;27;20063;-44
2022/12/17 13:33:19;;;;;;;56.17;36.38;;;;;;;-1.13;100.00;102633.09;5135761;27;20126;-37
2022/12/17 13:35:55;;;;;;;55.40;36.58;;;;;;;-1.16;100.00;102629.81;5135780;27;20114;-38
2022/12/17 13:38:23;;;;;;;52.67;33.38;;;;;;;-1.15;100.00;102639.47;5135914;27;20030;-37
2022/12/17 13:41:00;;;;;;;52.53;33.05;;;;;;;-1.14;100.00;102643.81;5134613;27;20400;-37
2022/12/17 13:43:30;;;;;;;52.55;33.25;;;;;;;-1.14;100.00;102638.53;5135028;27;20067;-37
2022/12/17 13:45:56;;;;;;;52.15;32.45;;;;;;;-1.10;100.00;102640.00;5135656;27;20038;-37
2022/12/17 13:48:25;;;;;;;48.97;30.93;;;;;;;-1.16;100.00;102622.72;5135406;27;20023;-37
2022/12/17 13:51:02;;;;;;;49.80;31.63;;;;;;;-1.08;100.00;102640.72;5135118;27;20061;-37
2022/12/17 13:53:28;;;;;;;52.53;34.45;;;;;;;-1.15;100.00;102644.78;5135191;27;20023;-37
2022/12/17 13:55:56;;;;;;;52.28;34.65;;;;;;;-1.18;100.00;102634.38;5135385;27;20019;-37
2022/12/17 13:58:29;;;;;;;51.97;32.30;;;;;;;-1.21;100.00;102638.13;5134617;27;20044;-37
2022/12/17 14:01:09;;;;;;;54.15;35.33;;;;;;;-1.25;100.00;102636.63;5134766;27;20471;-37
2022/12/17 14:03:36;;;;;;;52.55;34.00;;;;;;;-1.34;100.00;102630.19;5134585;27;20423;-36
2022/12/17 14:06:06;;;;;;;53.42;33.58;;;;;;;-1.29;100.00;102643.13;5134594;27;20132;-36
2022/12/17 14:08:32;;;;;;;54.03;32.70;;;;;;;-1.26;100.00;102642.91;5135174;27;20023;-37
2022/12/17 14:13:44;;;;;;;49.22;32.22;;;;;;;-1.26;100.00;102650.03;5134794;27;20394;-36
2022/12/17 14:16:14;;;;;;;48.45;30.75;;;;;;;-1.38;100.00;102647.28;5134579;27;20024;-37
2022/12/17 14:18:46;;;;;;;50.55;31.55;;;;;;;-1.39;100.00;102650.88;5134487;27;20042;-37
2022/12/17 14:21:12;;;;;;;53.67;33.00;;;;;;;-1.47;100.00;102645.25;5135058;27;20019;-37
2022/12/17 14:23:40;;;;;;;51.40;31.67;;;;;;;-1.42;100.00;102653.75;5134665;27;20468;-36
2022/12/17 14:26:09;;;;;;;50.65;31.00;;;;;;;-1.33;100.00;102654.91;5134702;27;20027;-37
2022/12/17 14:28:44;;;;;;;51.80;32.75;;;;;;;-1.42;100.00;102651.09;5134623;27;20432;-37
2022/12/17 14:31:20;;;;;;;56.65;34.42;;;;;;;-1.50;100.00;102642.00;5133242;27;20038;-37
2022/12/17 14:33:46;;;;;;;;;;;;;;;-1.35;100.00;102665.66;5134541;27;20050;-36
2022/12/17 14:36:14;;;;;;;55.58;32.90;;;;;;;-1.39;100.00;102658.84;5134330;27;19907;-37
2022/12/17 14:38:58;;;;;;;58.25;34.80;;;;;;;-1.34;100.00;102658.53;5134282;27;20026;-36
2022/12/17 14:44:21;;;;;;;56.63;33.72;;;;;;;-1.25;100.00;102663.19;5134125;27;20046;-36
2022/12/17 14:46:47;;;;;;;56.17;34.95;;;;;;;-1.26;100.00;102663.31;5134089;27;20047;-36
2022/12/17 14:49:19;;;;;;;57.03;34.65;;;;;;;-1.29;100.00;102656.41;5133469;27;20038;-36
2022/12/17 14:51:45;;;;;;;57.78;35.08;;;;;;;-1.33;100.00;102661.06;5134034;27;20042;-36
2022/12/17 14:54:19;;;;;;;58.67;34.97;;;;;;;-1.37;100.00;102667.53;5134091;27;20460;-36
2022/12/17 14:56:47;;;;;;;50.40;32.20;;;;;;;-1.34;100.00;102658.53;5134107;27;20093;-37
2022/12/17 14:59:25;;;;;;;54.15;33.83;;;;;;;-1.41;100.00;102659.94;5134769;27;20015;-36
2022/12/17 15:01:52;;;;;;;55.72;33.05;;;;;;;-1.24;100.00;102677.31;5133824;27;20079;-37
2022/12/17 15:04:18;;;;;;;55.53;33.83;;;;;;;-1.31;100.00;102677.75;5134156;27;20067;-36
2022/12/17 15:06:44;;;;;;;55.90;34.70;;;;;;;-1.27;100.00;102673.03;5133634;27;20039;-36
2022/12/17 15:09:11;;;;;;;57.72;34.45;;;;;;;-1.33;100.00;102677.00;5134400;27;20023;-36
2022/12/17 15:11:36;;;;;;;55.92;34.45;;;;;;;-1.35;100.00;102681.56;5134005;27;20031;-36
2022/12/17 15:14:02;;;;;;;54.07;34.37;;;;;;;-1.37;100.00;102679.97;5133874;27;20451;-36
2022/12/17 15:16:27;;;;;;;54.60;33.77;;;;;;;-1.41;100.00;102684.66;5133540;27;20035;-36
2022/12/17 15:18:53;;;;;;;58.23;35.23;;;;;;;-1.42;100.00;102695.38;5133910;27;20034;-36
2022/12/17 15:21:19;;;;;;;55.87;33.97;;;;;;;-1.50;100.00;102693.25;5133766;27;20084;-36
2022/12/17 15:23:45;;;;;;;51.92;32.28;;;;;;;-1.53;100.00;102698.78;5133672;27;20045;-36
2022/12/17 15:26:12;;;;;;;55.75;32.97;;;;;;;-1.57;100.00;102703.44;5137380;27;20107;-36
2022/12/17 15:28:38;;;;;;;53.22;32.15;;;;;;;-1.59;100.00;102705.34;5137632;27;20027;-36
2022/12/17 15:31:03;;;;;;;57.20;34.13;;;;;;;-1.70;100.00;102709.72;5137800;27;20520;-36
2022/12/17 15:33:28;;;;;;;51.20;32.13;;;;;;;-1.68;100.00;102713.09;5138762;27;20134;-37
2022/12/17 15:35:54;;;;;;;55.77;34.20;;;;;;;-1.78;100.00;102712.03;5137410;27;20281;-37
2022/12/17 15:38:19;;;;;;;57.43;33.33;;;;;;;-1.75;100.00;102711.84;5136450;27;20115;-37
2022/12/17 15:40:44;;;;;;;52.10;31.03;;;;;;;-1.87;100.00;102700.25;5137370;27;20023;-37
2022/12/17 15:43:11;;;;;;;49.17;30.23;;;;;;;-1.78;100.00;102722.66;5138078;27;20105;-37
2022/12/17 15:45:59;;;;;;;53.65;32.40;;;;;;;-1.76;100.00;102723.38;5137545;27;20047;-37
2022/12/17 15:48:24;;;;;;;58.00;33.08;;;;;;;-1.78;100.00;102717.34;5138230;27;20027;-37
2022/12/17 15:50:49;;;;;;;48.00;28.83;;;;;;;-1.93;100.00;102698.88;5137940;27;20034;-37
2022/12/17 15:53:15;;;;;;;54.43;32.17;;;;;;;-2.01;100.00;102690.56;5137203;27;20023;-37
2022/12/17 15:55:40;;;;;;;53.07;30.67;;;;;;;-1.92;100.00;102703.22;5137081;27;20028;-37
2022/12/17 15:58:07;;;;;;;48.25;28.52;;;;;;;-1.77;100.00;102722.53;5137642;27;20023;-37
2022/12/17 16:00:33;;;;;;;51.15;31.42;;;;;;;-2.02;100.00;102723.34;5137182;27;20111;-37
2022/12/17 16:02:58;;;;;;;51.92;31.35;;;;;;;-1.95;100.00;102724.66;5137480;27;20058;-37
2022/12/17 16:05:23;;;;;;;55.70;30.97;;;;;;;-2.01;100.00;102724.19;5137256;27;20027;-37
2022/12/17 16:07:50;;;;;;;56.80;32.77;;;;;;;-2.12;100.00;102722.28;5137104;27;20134;-36
2022/12/17 16:10:16;;;;;;;57.45;32.20;;;;;;;-2.09;100.00;102733.53;5137127;27;20033;-37
2022/12/17 16:12:41;;;;;;;;;;;;;;;-1.99;100.00;102731.09;5137786;27;20019;-37
2022/12/17 16:15:08;;;;;;;47.50;28.23;;;;;;;-2.02;100.00;102743.72;5135643;27;19933;-37
2022/12/17 16:17:33;;;;;;;;;;;;;;;-2.01;100.00;102748.91;5137990;27;20260;-37
2022/12/17 16:19:59;;;;;;;52.95;29.48;;;;;;;-2.18;100.00;102747.38;5137493;27;19911;-37
2022/12/17 16:22:25;;;;;;;53.22;30.38;;;;;;;-2.31;100.00;102721.78;5135206;27;20027;-36
2022/12/17 16:24:51;;;;;;;55.53;31.70;;;;;;;-2.13;100.00;102729.38;5135352;27;20459;-36
2022/12/17 16:27:17;;;;;;;54.78;29.67;;;;;;;-2.09;100.00;102735.34;5137494;27;20023;-36
2022/12/17 16:29:42;;;;;;;58.58;31.88;;;;;;;-2.05;100.00;102747.41;5137576;27;20506;-36
2022/12/17 16:32:08;;;;;;;56.53;31.75;;;;;;;-2.05;100.00;102738.59;5136800;27;20044;-36
2022/12/17 16:34:33;;;;;;;53.17;30.83;;;;;;;-2.11;100.00;102730.09;5137040;27;20039;-36
2022/12/17 16:37:00;;;;;;;53.17;30.40;;;;;;;-2.08;100.00;102729.06;5136435;27;20122;-36
2022/12/17 16:39:25;;;;;;;57.13;32.40;;;;;;;-2.21;100.00;102731.66;5137282;27;20027;-36
2022/12/17 16:41:51;;;;;;;56.90;32.00;;;;;;;-2.16;100.00;102741.97;5136244;27;20033;-36
2022/12/17 16:44:16;;;;;;;58.57;32.07;;;;;;;-2.16;100.00;102740.16;5136492;27;20160;-37
2022/12/17 16:46:43;;;;;;;62.63;33.57;;;;;;;-2.06;100.00;102737.75;5136469;27;20031;-37
2022/12/17 16:49:12;;;;;;;63.30;34.78;;;;;;;-1.98;100.00;102734.59;5134869;27;20023;-37
2022/12/17 16:51:38;;;;;;;56.40;31.50;;;;;;;-2.17;100.00;102709.31;5136352;27;20185;-37
2022/12/17 16:54:09;;;;;;;61.88;33.15;;;;;;;-2.07;100.00;102731.59;5136054;27;20027;-37
2022/12/17 16:56:35;;;;;;;62.10;34.10;;;;;;;-2.18;100.00;102728.84;5136596;27;20046;-37
2022/12/17 16:59:06;;;;;;;56.15;30.40;;;;;;;-1.93;100.00;102749.25;5136975;27;20106;-37
2022/12/17 17:01:32;;;;;;;62.05;32.97;;;;;;;-2.04;100.00;102746.47;5136194;27;20034;-37
2022/12/17 17:03:57;;;;;;;58.00;31.93;;;;;;;-1.98;100.00;102746.06;5135635;27;20379;-37
2022/12/17 17:06:23;;;;;;;62.97;33.30;;;;;;;-2.11;100.00;102729.25;5136215;27;20031;-37
2022/12/17 17:08:49;;;;;;;60.58;32.08;;;;;;;-2.11;100.00;102723.97;5134706;27;20027;-37
2022/12/17 17:11:23;;;;;;;61.03;31.88;;;;;;;-1.98;100.00;102748.72;5135518;27;20099;-37
2022/12/17 17:13:53;;;;;;;64.57;34.22;;;;;;;-2.03;100.00;102752.63;5135853;27;20035;-37
2022/12/17 17:16:25;;;;;;;61.90;33.28;;;;;;;-2.04;100.00;102746.47;5135531;27;20035;-37
2022/12/17 17:18:51;;;;;;;61.95;33.40;;;;;;;-2.18;100.00;102743.88;5135570;27;20023;-37
2022/12/17 17:21:20;;;;;;;57.47;30.60;;;;;;;-2.19;100.00;102727.13;5136365;27;20345;-36
2022/12/17 17:23:47;;;;;;;58.35;30.70;;;;;;;-2.20;100.00;102746.63;5136132;27;20030;-36
2022/12/17 17:26:13;;;;;;;59.63;31.77;;;;;;;-2.13;100.00;102752.38;5135574;27;20103;-36
2022/12/17 17:28:39;;;;;;;54.40;29.27;;;;;;;-2.09;100.00;102744.13;5136066;27;20451;-36
2022/12/17 17:31:07;;;;;;;57.03;30.95;;;;;;;-2.05;100.00;102749.22;5135609;27;20091;-36
2022/12/17 17:33:35;;;;;;;53.17;31.17;;;;;;;-2.17;100.00;102743.78;5136067;27;20436;-36
2022/12/17 17:36:05;;;;;;;61.25;32.42;;;;;;;-2.25;100.00;102756.66;5135710;27;20111;-36
2022/12/17 17:38:33;;;;;;;58.35;31.35;;;;;;;-2.28;100.00;102764.00;5135406;27;20023;-36
2022/12/17 17:40:59;;;;;;;57.60;31.65;;;;;;;-2.31;100.00;102772.97;5135009;27;20055;-36
2022/12/17 17:43:24;;;;;;;58.03;31.65;;;;;;;-2.30;100.00;102766.72;5135828;27;20070;-36
2022/12/17 17:45:50;;;;;;;59.17;32.10;;;;;;;-2.39;100.00;102751.44;5135395;27;20023;-37
2022/12/17 17:48:15;;;;;;;55.43;28.63;;;;;;;-2.35;100.00;102780.28;5134929;27;20023;-37
2022/12/17 17:50:40;;;;;;;53.50;29.07;;;;;;;-2.44;100.00;102772.06;5135188;27;20062;-37
2022/12/17 17:53:06;;;;;;;49.60;28.57;;;;;;;-2.46;100.00;102777.47;5136016;27;20502;-36
2022/12/17 17:55:34;;;;;;;51.10;28.77;;;;;;;-2.54;100.00;102773.63;5134847;27;20031;-37
2022/12/17 17:58:00;;;;;;;54.35;29.33;;;;;;;-2.63;100.00;102762.69;5135837;27;20049;-37
2022/12/17 18:00:26;;;;;;;56.83;28.42;;;;;;;-2.68;100.00;102767.44;5135065;27;20024;-37
2022/12/17 18:02:51;;;;;;;55.83;27.67;;;;;;;-2.70;100.00;102777.25;5135129;27;20472;-37
2022/12/17 18:05:16;;;;;;;48.90;27.00;;;;;;;-2.72;100.00;102770.38;5135382;27;20070;-37
2022/12/17 18:07:42;;;;;;;48.57;26.07;;;;;;;-2.76;100.00;102756.47;5134919;27;20019;-36
2022/12/17 18:10:08;;;;;;;51.50;27.57;;;;;;;-2.79;100.00;102756.63;5134858;27;20387;-36
2022/12/17 18:15:17;;;;;;;55.85;28.60;;;;;;;-2.70;100.00;102776.41;5135275;27;20118;-36
2022/12/17 18:17:45;;;;;;;56.58;28.90;;;;;;;-2.70;100.00;102779.03;5134937;27;20518;-36
2022/12/17 18:20:11;;;;;;;59.70;31.05;;;;;;;-2.81;100.00;102769.13;5134680;27;20455;-36
2022/12/17 18:22:37;;;;;;;53.75;28.45;;;;;;;-2.66;100.00;102785.84;5134578;27;20072;-36
2022/12/17 18:25:03;;;;;;;54.60;28.50;;;;;;;-2.71;100.00;102782.66;5135158;27;20019;-36
2022/12/17 18:27:28;;;;;;;51.33;27.48;;;;;;;-2.63;100.00;102783.03;5134467;27;20091;-36
2022/12/17 18:29:53;;;;;;;58.90;30.23;;;;;;;-2.88;100.00;102760.75;5134215;27;20059;-36
2022/12/17 18:32:19;;;;;;;53.63;28.60;;;;;;;-2.71;100.00;102785.28;5134161;27;20050;-36
2022/12/17 18:34:44;;;;;;;51.37;28.10;;;;;;;-2.68;100.00;102790.41;5134567;27;20030;-36
2022/12/17 18:37:09;;;;;;;57.30;27.00;;;;;;;-2.72;100.00;102783.59;5134693;27;20023;-36
2022/12/17 18:39:35;;;;;;;50.10;27.57;;;;;;;-2.69;100.00;102783.38;5135011;27;20030;-36
2022/12/17 18:44:44;;;;;;;51.78;27.90;;;;;;;-2.94;100.00;102755.81;5134140;27;20045;-36
2022/12/17 18:47:09;;;;;;;56.83;27.97;;;;;;;-2.85;100.00;102771.13;5134315;27;20023;-36
2022/12/17 18:49:35;;;;;;;51.55;27.67;;;;;;;-2.77;100.00;102772.44;5133007;27;20023;-36
2022/12/17 18:52:01;;;;;;;55.55;29.02;;;;;;;-2.78;100.00;102770.72;5133854;27;20088;-36
2022/12/17 18:54:28;;;;;;;56.35;28.77;;;;;;;-2.79;100.00;102774.31;5134030;27;20027;-36
2022/12/17 18:56:56;;;;;;;55.17;28.83;;;;;;;-2.78;100.00;102776.03;5133838;27;20475;-37
2022/12/17 18:59:25;;;;;;;55.30;28.13;;;;;;;-2.78;100.00;102779.56;5133436;27;20474;-36
2022/12/17 19:01:50;;;;;;;51.50;26.38;;;;;;;-2.86;100.00;102784.47;5134324;27;20436;-36
2022/12/17 19:04:19;;;;;;;50.70;27.00;;;;;;;-2.98;100.00;102764.88;5134433;27;20051;-36
2022/12/17 19:06:47;;;;;;;45.40;25.17;;;;;;;-2.84;100.00;102782.56;5133992;27;20527;-36
2022/12/17 19:09:34;;;;;;;46.78;26.42;;;;;;;-2.80;100.00;102777.94;5134673;27;20038;-36
2022/12/17 19:12:01;;;;;;;47.63;27.23;;;;;;;-2.85;100.00;102781.72;5133983;27;20110;-37
2022/12/17 19:14:26;;;;;;;46.53;26.33;;;;;;;-2.81;100.00;102784.19;5134094;27;20495;-36
2022/12/17 19:16:53;;;;;;;41.87;24.57;;;;;;;-2.74;100.00;102791.63;5134216;27;20115;-36
2022/12/17 19:19:20;;;;;;;43.10;25.30;;;;;;;-2.78;100.00;102778.66;5134082;27;20029;-37
2022/12/17 19:21:46;;;;;;;50.92;28.33;;;;;;;-2.75;100.00;102802.31;5133963;27;20023;-37
2022/12/17 19:24:14;;;;;;;53.47;29.35;;;;;;;-2.73;100.00;102806.59;5134567;27;20084;-37
2022/12/17 19:26:40;;;;;;;51.25;29.35;;;;;;;-2.77;100.00;102809.53;5134073;27;20356;-38
2022/12/17 19:29:07;;;;;;;51.53;28.95;;;;;;;-2.89;100.00;102816.41;5133710;27;20038;-37
2022/12/17 19:31:33;;;;;;;54.78;26.23;;;;;;;-2.93;100.00;102814.91;5133826;27;20475;-37
2022/12/17 19:34:00;;;;;;;;;;;;;;;-2.85;100.00;102810.00;5134511;27;20137;-37
2022/12/17 19:36:27;;;;;;;48.50;25.23;;;;;;;-2.99;100.00;102804.69;5134073;27;19922;-37
2022/12/17 19:38:54;;;;;;;43.20;25.38;;;;;;;-3.10;100.00;102786.84;5133886;27;20309;-37
2022/12/17 19:41:21;;;;;;;47.10;26.30;;;;;;;-2.99;100.00;102808.19;5133994;27;20123;-37
2022/12/17 19:43:51;;;;;;;46.35;25.88;;;;;;;-2.95;100.00;102812.34;5134000;27;20083;-37
2022/12/17 19:46:18;;;;;;;49.28;26.98;;;;;;;-2.89;100.00;102811.97;5133136;28;20126;-37
2022/12/17 19:48:44;;;;;;;50.15;27.33;;;;;;;-2.93;100.00;102810.47;5134302;27;20031;-37
2022/12/17 19:51:12;;;;;;;49.35;27.42;;;;;;;-2.97;100.00;102797.53;5133727;27;20055;-37
2022/12/17 19:53:39;;;;;;;44.90;26.77;;;;;;;-2.97;100.00;102810.75;5133691;27;20035;-37
2022/12/17 19:56:15;;;;;;;50.83;29.05;;;;;;;-2.92;100.00;102817.47;5133535;27;20023;-37
2022/12/17 19:58:42;;;;;;;49.45;26.67;;;;;;;-2.78;100.00;102813.09;5133904;27;20023;-37
2022/12/17 20:01:12;;;;;;;48.90;26.95;;;;;;;-2.92;100.00;102819.28;5134335;27;20436;-37
2022/12/17 20:03:38;;;;;;;46.17;25.88;;;;;;;-2.90;100.00;102826.16;5133726;27;20130;-37
2022/12/17 20:06:05;;;;;;;44.28;27.40;;;;;;;-3.00;100.00;102819.72;5133193;27;20027;-37
2022/12/17 20:08:31;;;;;;;48.67;28.15;;;;;;;-3.03;100.00;102827.84;5133836;27;20023;-37
2022/12/17 20:10:58;;;;;;;44.20;26.30;;;;;;;-2.96;100.00;102833.63;5134569;27;20471;-37
2022/12/17 20:13:24;;;;;;;47.65;28.05;;;;;;;-3.05;100.00;102831.56;5137777;27;20038;-37
2022/12/17 20:16:00;;;;;;;51.27;29.27;;;;;;;-3.05;100.00;102843.00;5135707;27;20019;-37
2022/12/17 20:18:26;;;;;;;49.97;28.90;;;;;;;-3.11;100.00;102833.63;5137156;27;20092;-36
2022/12/17 20:20:51;;;;;;;43.80;26.40;;;;;;;-3.15;100.00;102847.13;5137629;27;20449;-36
2022/12/17 20:23:20;;;;;;;40.47;25.53;;;;;;;-3.20;100.00;102851.84;5137217;27;20069;-36
2022/12/17 20:25:45;;;;;;;43.63;25.45;;;;;;;-3.16;100.00;102848.09;5136826;27;20023;-37
2022/12/17 20:28:10;;;;;;;48.50;26.23;;;;;;;-3.35;100.00;102835.09;5137021;27;20447;-37
2022/12/17 20:30:37;;;;;;;48.70;24.87;;;;;;;-3.29;100.00;102828.59;5136951;27;20059;-37
2022/12/17 20:33:02;;;;;;;42.75;24.73;;;;;;;-3.23;100.00;102842.28;5137091;27;20055;-37
2022/12/17 20:35:28;;;;;;;42.17;25.63;;;;;;;-3.25;100.00;102838.06;5136749;27;20356;-37
2022/12/17 20:37:53;;;;;;;39.07;24.27;;;;;;;-3.26;100.00;102839.00;5137006;27;20463;-37
2022/12/17 20:40:18;;;;;;;40.00;23.43;;;;;;;-3.27;100.00;102846.09;5135129;27;20030;-37
2022/12/17 20:42:44;;;;;;;43.80;26.23;;;;;;;-3.33;100.00;102842.94;5136548;27;20031;-37
2022/12/17 20:45:09;;;;;;;40.43;23.70;;;;;;;-3.35;100.00;102842.19;5136546;27;20133;-37
2022/12/17 20:47:35;;;;;;;37.47;22.13;;;;;;;-3.51;100.00;102819.31;5137176;27;20472;-37
2022/12/17 20:50:00;;;;;;;39.20;22.90;;;;;;;-3.37;100.00;102834.34;5136844;27;20039;-37
2022/12/17 20:52:25;;;;;;;42.07;24.03;;;;;;;-3.38;100.00;102832.63;5136331;27;20042;-37
2022/12/17 20:54:51;;;;;;;42.20;25.87;;;;;;;-3.42;100.00;102828.47;5136651;27;20030;-37
2022/12/17 20:57:16;;;;;;;41.97;24.63;;;;;;;-3.57;100.00;102809.06;5136271;27;20037;-37
2022/12/17 20:59:41;;;;;;;43.53;24.70;;;;;;;-3.66;100.00;102806.97;5136290;27;20417;-37
2022/12/17 21:02:08;;;;;;;42.80;25.10;;;;;;;-3.54;100.00;102822.13;5135934;27;20102;-37
2022/12/17 21:04:34;;;;;;;40.40;23.92;;;;;;;-3.54;100.00;102830.06;5136587;27;20264;-37
2022/12/17 21:06:59;;;;;;;39.03;25.05;;;;;;;-3.76;100.00;102800.53;5136086;27;20019;-37
2022/12/17 21:09:25;;;;;;;39.10;23.33;;;;;;;-3.47;100.00;102835.81;5136218;27;20023;-37
2022/12/17 21:11:50;;;;;;;39.33;24.07;;;;;;;-3.55;100.00;102833.66;5136047;27;20405;-37
2022/12/17 21:14:17;;;;;;;41.50;24.05;;;;;;;-3.49;100.00;102837.72;5136346;27;20566;-37
2022/12/17 21:16:43;;;;;;;40.67;23.98;;;;;;;-3.57;100.00;102819.66;5135948;27;20066;-37
2022/12/17 21:19:11;;;;;;;43.17;21.40;;;;;;;-3.54;100.00;102824.78;5136270;27;20023;-37
2022/12/17 21:21:37;;;;;;;38.38;22.25;;;;;;;-3.56;100.00;102839.88;5135693;27;20031;-38
2022/12/17 21:24:03;;;;;;;37.47;22.73;;;;;;;-3.52;100.00;102833.44;5135458;27;20023;-37
2022/12/17 21:26:31;;;;;;;35.67;22.60;;;;;;;-3.60;100.00;102841.00;5134495;27;20031;-36
2022/12/17 21:29:00;;;;;;;37.90;21.85;;;;;;;-3.67;100.00;102834.34;5136483;27;20059;-37
2022/12/17 21:31:29;;;;;;;37.55;22.90;;;;;;;-3.73;100.00;102829.44;5135711;27;20425;-37
2022/12/17 21:33:57;;;;;;;37.75;22.40;;;;;;;-3.64;100.00;102842.13;5136055;27;20051;-37
2022/12/17 21:36:23;;;;;;;36.85;22.95;;;;;;;-3.61;100.00;102849.88;5135761;27;20039;-42
2022/12/17 21:38:50;;;;;;;39.10;24.63;;;;;;;-3.64;100.00;102845.63;5134232;27;20080;-37
2022/12/17 21:41:18;;;;;;;40.00;24.77;;;;;;;-3.60;100.00;102851.59;5135172;27;20383;-36
2022/12/17 21:43:44;;;;;;;42.50;26.83;;;;;;;-3.71;100.00;102848.69;5135356;27;20055;-37
2022/12/17 21:46:10;;;;;;;41.78;24.35;;;;;;;-3.65;100.00;102846.56;5134147;27;20067;-37
2022/12/17 21:48:38;;;;;;;42.25;24.85;;;;;;;-3.64;100.00;102831.53;5135371;27;20093;-37
2022/12/17 21:51:05;;;;;;;46.47;25.73;;;;;;;-3.62;100.00;102829.66;5135248;27;20456;-36
2022/12/17 21:53:31;;;;;;;46.78;26.88;;;;;;;-3.59;100.00;102850.63;5135786;27;20035;-36
2022/12/17 21:56:14;;;;;;;43.47;26.17;;;;;;;-3.75;100.00;102826.88;5135247;27;20023;-37
2022/12/17 21:58:40;;;;;;;45.33;25.33;;;;;;;-3.54;100.00;102853.00;5135574;27;20452;-37
2022/12/17 22:01:24;;;;;;;46.60;27.33;;;;;;;-3.53;100.00;102860.84;5134983;27;20421;-37
2022/12/17 22:03:51;;;;;;;40.78;24.52;;;;;;;-3.57;100.00;102863.75;5135149;27;20050;-35
2022/12/17 22:06:18;;;;;;;44.05;25.90;;;;;;;-3.62;100.00;102861.38;5134859;27;20031;-36
2022/12/17 22:08:45;;;;;;;43.67;26.70;;;;;;;-3.61;100.00;102855.19;5135133;27;20062;-37
2022/12/17 22:11:13;;;;;;;47.88;27.70;;;;;;;-3.51;100.00;102880.16;5133776;27;20034;-37
2022/12/17 22:16:24;;;;;;;41.10;24.90;;;;;;;-3.58;100.00;102870.00;5134576;27;20072;-37
2022/12/17 22:18:50;;;;;;;43.53;26.45;;;;;;;-3.63;100.00;102878.19;5135246;27;20027;-37
2022/12/17 22:21:16;;;;;;;;;;;;;;;-3.48;100.00;102887.03;5135136;27;20031;-38
2022/12/17 22:23:45;;;;;;;40.53;24.40;;;;;;;-3.62;100.00;102879.91;5135189;27;20339;-37
2022/12/17 22:26:11;;;;;;;44.67;26.38;;;;;;;-3.64;100.00;102881.78;5134365;27;20024;-37
2022/12/17 22:28:36;;;;;;;45.10;25.85;;;;;;;-3.74;100.00;102870.03;5134350;27;20076;-37
2022/12/17 22:33:50;;;;;;;38.45;24.33;;;;;;;-3.65;100.00;102880.09;5134264;27;20070;-37
2022/12/17 22:36:16;;;;;;;42.07;26.27;;;;;;;-3.74;100.00;102878.81;5133728;27;20023;-37
2022/12/17 22:38:41;;;;;;;41.65;25.88;;;;;;;-3.74;100.00;102868.25;5132210;28;20327;-37
2022/12/17 22:41:07;;;;;;;45.90;27.00;;;;;;;-3.74;100.00;102872.69;5132275;28;20491;-37
2022/12/17 22:43:34;;;;;;;36.87;22.93;;;;;;;-3.74;100.00;102875.34;5134264;27;20273;-37
2022/12/17 22:46:02;;;;;;;39.53;25.13;;;;;;;-3.85;100.00;102869.81;5132309;28;20027;-37
2022/12/17 22:48:29;;;;;;;41.05;25.17;;;;;;;-3.82;100.00;102882.84;5133248;27;20027;-37
2022/12/17 22:50:55;;;;;;;41.63;24.85;;;;;;;-3.91;100.00;102871.00;5133483;27;20376;-36
2022/12/17 22:53:21;;;;;;;;;;;;;;;-3.74;100.00;102885.91;5133493;27;20027;-37
2022/12/17 22:55:47;;;;;;;41.35;24.13;;;;;;;-3.84;100.00;102876.78;5133379;27;19914;-37
2022/12/17 22:58:12;;;;;;;;;;;;;;;-3.76;100.00;102877.19;5134255;27;20027;-37
2022/12/17 23:00:38;;;;;;;40.50;23.47;;;;;;;-3.89;100.00;102874.41;5133251;27;19907;-37
2022/12/17 23:03:03;;;;;;;41.58;25.20;;;;;;;-3.88;100.00;102869.03;5132033;28;20043;-37
2022/12/17 23:05:30;;;;;;;42.13;24.35;;;;;;;-3.89;100.00;102866.47;5132884;27;20023;-36
2022/12/17 23:07:56;;;;;;;41.55;25.45;;;;;;;-3.91;100.00;102869.19;5132019;28;20148;-37
2022/12/17 23:10:23;;;;;;;46.67;26.80;;;;;;;-3.93;100.00;102871.09;5133210;27;20379;-37
2022/12/17 23:12:54;;;;;;;42.90;24.50;;;;;;;-3.94;100.00;102864.09;5133098;27;20038;-37
2022/12/17 23:15:32;;;;;;;41.10;24.63;;;;;;;-4.02;100.00;102861.03;5133379;27;20502;-37
2022/12/17 23:18:00;;;;;;;43.97;25.30;;;;;;;-4.07;100.00;102857.78;5133641;27;20046;-38
2022/12/17 23:20:28;;;;;;;41.20;24.38;;;;;;;-4.05;100.00;102848.00;5132906;27;20019;-37
2022/12/17 23:22:54;;;;;;;40.70;24.45;;;;;;;-4.04;100.00;102848.84;5133008;27;20062;-37
2022/12/17 23:25:20;;;;;;;41.45;24.33;;;;;;;-4.13;100.00;102841.44;5132940;27;20059;-37
2022/12/17 23:27:46;;;;;;;40.55;24.92;;;;;;;-4.08;100.00;102868.47;5133581;27;20027;-37
2022/12/17 23:30:13;;;;;;;40.17;24.20;;;;;;;-4.13;100.00;102862.59;5132625;27;20038;-37
2022/12/17 23:32:39;;;;;;;38.28;23.70;;;;;;;-4.30;100.00;102845.88;5095596;27;1063866;-37
2022/12/17 23:35:05;;;;;;;41.28;25.17;;;;;;;-4.23;100.00;102865.75;5133804;27;20364;-37
2022/12/17 23:37:30;;;;;;;41.47;23.92;;;;;;;-4.27;100.00;102850.13;5134551;27;20038;-37
2022/12/17 23:39:55;;;;;;;39.83;23.30;;;;;;;-4.13;100.00;102855.50;5133883;27;20038;-36
2022/12/17 23:42:21;;;;;;;41.50;24.77;;;;;;;-4.11;100.00;102858.91;5133973;27;20027;-37
2022/12/17 23:44:46;;;;;;;41.77;25.10;;;;;;;-4.20;100.00;102856.78;5134098;27;20080;-37
2022/12/17 23:47:11;;;;;;;44.00;26.10;;;;;;;-4.23;100.00;102860.47;5137727;27;20037;-37
2022/12/17 23:49:37;;;;;;;41.63;25.27;;;;;;;-4.23;100.00;102852.53;5137661;27;20034;-36
2022/12/17 23:52:02;;;;;;;39.67;23.27;;;;;;;-4.18;100.00;102854.91;5137841;27;20039;-38
2022/12/17 23:54:28;;;;;;;40.97;24.47;;;;;;;-4.23;100.00;102856.97;5136106;27;20035;-37
2022/12/17 23:56:53;;;;;;;39.20;24.35;;;;;;;-4.31;100.00;102878.50;5137415;27;20502;-37
2022/12/17 23:59:19;;;;;;;44.73;25.13;;;;;;;-4.31;100.00;102875.03;5137656;27;20035;-37
